sensor_id;sensor_type;location;lat;lon;timestamp;pressure;altitude;pressure_sealevel;temperature;humidity
57376;BME280;44805;45.048;5.062;2023-03-15T00:04:12;99818.25;;;9.22;72.10
57376;BME280;44805;45.048;5.062;2023-03-15T00:06:38;99809.97;;;9.37;73.15
57376;BME280;44805;45.048;5.062;2023-03-15T00:09:03;99814.66;;;9.43;72.34
57376;BME280;44805;45.048;5.062;2023-03-15T00:11:28;99805.53;;;9.47;72.42
57376;BME280;44805;45.048;5.062;2023-03-15T00:13:55;99806.19;;;9.59;72.32
57376;BME280;44805;45.048;5.062;2023-03-15T00:16:21;99811.03;;;9.63;72.07
57376;BME280;44805;45.048;5.062;2023-03-15T00:18:52;99810.75;;;9.66;71.50
57376;BME280;44805;45.048;5.062;2023-03-15T00:21:17;99819.91;;;9.62;70.70
57376;BME280;44805;45.048;5.062;2023-03-15T00:23:43;99813.25;;;9.58;72.02
57376;BME280;44805;45.048;5.062;2023-03-15T00:26:08;99820.59;;;9.54;73.23
57376;BME280;44805;45.048;5.062;2023-03-15T00:28:34;99821.56;;;9.44;72.47
57376;BME280;44805;45.048;5.062;2023-03-15T00:31:06;99823.66;;;9.40;72.17
57376;BME280;44805;45.048;5.062;2023-03-15T00:33:33;99814.81;;;9.31;73.13
57376;BME280;44805;45.048;5.062;2023-03-15T00:36:01;99821.84;;;9.21;73.51
57376;BME280;44805;45.048;5.062;2023-03-15T00:38:26;99824.59;;;9.20;72.70
57376;BME280;44805;45.048;5.062;2023-03-15T00:40:51;99824.63;;;9.29;72.61
57376;BME280;44805;45.048;5.062;2023-03-15T00:43:16;99828.78;;;9.32;73.11
57376;BME280;44805;45.048;5.062;2023-03-15T00:45:42;99832.38;;;9.21;73.00
57376;BME280;44805;45.048;5.062;2023-03-15T00:48:14;99831.81;;;9.27;72.80
57376;BME280;44805;45.048;5.062;2023-03-15T00:50:39;99833.19;;;9.22;74.47
57376;BME280;44805;45.048;5.062;2023-03-15T00:53:05;99831.09;;;9.25;75.24
57376;BME280;44805;45.048;5.062;2023-03-15T00:55:30;99840.09;;;9.03;72.04
57376;BME280;44805;45.048;5.062;2023-03-15T00:57:55;99841.47;;;9.17;73.27
57376;BME280;44805;45.048;5.062;2023-03-15T01:00:21;99837.19;;;9.16;71.16
57376;BME280;44805;45.048;5.062;2023-03-15T01:05:53;99837.88;;;9.28;69.46
57376;BME280;44805;45.048;5.062;2023-03-15T01:08:18;99846.75;;;9.37;69.17
57376;BME280;44805;45.048;5.062;2023-03-15T01:10:44;99852.53;;;9.21;68.98
57376;BME280;44805;45.048;5.062;2023-03-15T01:13:09;99852.69;;;9.19;70.40
57376;BME280;44805;45.048;5.062;2023-03-15T01:15:34;99847.69;;;9.06;71.75
57376;BME280;44805;45.048;5.062;2023-03-15T01:17:59;99845.19;;;9.05;73.38
57376;BME280;44805;45.048;5.062;2023-03-15T01:20:25;99841.06;;;9.12;72.66
57376;BME280;44805;45.048;5.062;2023-03-15T01:22:50;99846.97;;;8.95;73.78
57376;BME280;44805;45.048;5.062;2023-03-15T01:25:15;99847.78;;;8.85;75.13
57376;BME280;44805;45.048;5.062;2023-03-15T01:27:41;99848.34;;;8.89;74.57
57376;BME280;44805;45.048;5.062;2023-03-15T01:30:06;99850.09;;;8.69;75.93
57376;BME280;44805;45.048;5.062;2023-03-15T01:35:38;99840.00;;;8.74;76.41
57376;BME280;44805;45.048;5.062;2023-03-15T01:38:03;99841.50;;;8.67;75.00
57376;BME280;44805;45.048;5.062;2023-03-15T01:40:28;99841.94;;;8.72;75.36
57376;BME280;44805;45.048;5.062;2023-03-15T01:48:15;99833.91;;;8.64;77.04
57376;BME280;44805;45.048;5.062;2023-03-15T01:50:41;99837.50;;;8.63;76.19
57376;BME280;44805;45.048;5.062;2023-03-15T01:53:06;99835.00;;;8.61;75.97
57376;BME280;44805;45.048;5.062;2023-03-15T01:55:32;99827.84;;;8.63;76.20
57376;BME280;44805;45.048;5.062;2023-03-15T01:57:57;99838.84;;;8.47;77.08
57376;BME280;44805;45.048;5.062;2023-03-15T02:00:23;99834.47;;;8.58;75.58
57376;BME280;44805;45.048;5.062;2023-03-15T02:05:53;99840.50;;;8.48;75.07
57376;BME280;44805;45.048;5.062;2023-03-15T02:08:21;99848.25;;;8.60;76.57
57376;BME280;44805;45.048;5.062;2023-03-15T02:10:51;99846.28;;;8.52;76.66
57376;BME280;44805;45.048;5.062;2023-03-15T02:13:18;99843.19;;;8.68;75.42
57376;BME280;44805;45.048;5.062;2023-03-15T02:15:46;99852.13;;;8.56;77.19
57376;BME280;44805;45.048;5.062;2023-03-15T02:26:31;99840.16;;;8.42;76.79
57376;BME280;44805;45.048;5.062;2023-03-15T02:28:59;99833.84;;;8.44;78.22
57376;BME280;44805;45.048;5.062;2023-03-15T02:31:25;99825.06;;;8.55;77.11
57376;BME280;44805;45.048;5.062;2023-03-15T02:39:56;99818.81;;;8.56;76.92
57376;BME280;44805;45.048;5.062;2023-03-15T02:42:21;99821.16;;;8.50;76.46
57376;BME280;44805;45.048;5.062;2023-03-15T02:44:48;99825.28;;;8.42;77.48
57376;BME280;44805;45.048;5.062;2023-03-15T02:47:15;99821.56;;;8.45;77.72
57376;BME280;44805;45.048;5.062;2023-03-15T02:49:43;99822.50;;;8.44;78.60
57376;BME280;44805;45.048;5.062;2023-03-15T02:52:10;99820.28;;;8.39;77.39
57376;BME280;44805;45.048;5.062;2023-03-15T02:54:37;99817.63;;;8.09;78.28
57376;BME280;44805;45.048;5.062;2023-03-15T02:57:07;99825.06;;;8.03;78.92
57376;BME280;44805;45.048;5.062;2023-03-15T02:59:32;99818.22;;;8.12;79.05
57376;BME280;44805;45.048;5.062;2023-03-15T03:02:13;99830.97;;;8.26;78.09
57376;BME280;44805;45.048;5.062;2023-03-15T03:04:38;99828.22;;;7.97;79.54
57376;BME280;44805;45.048;5.062;2023-03-15T03:07:04;99836.41;;;8.04;79.55
57376;BME280;44805;45.048;5.062;2023-03-15T03:09:29;99838.88;;;8.05;78.13
57376;BME280;44805;45.048;5.062;2023-03-15T03:11:54;99829.41;;;7.93;78.79
57376;BME280;44805;45.048;5.062;2023-03-15T03:14:20;99831.09;;;7.94;78.03
57376;BME280;44805;45.048;5.062;2023-03-15T03:16:48;99834.47;;;8.06;78.39
57376;BME280;44805;45.048;5.062;2023-03-15T03:19:13;99844.94;;;8.06;77.58
57376;BME280;44805;45.048;5.062;2023-03-15T03:21:39;99847.16;;;7.80;78.55
57376;BME280;44805;45.048;5.062;2023-03-15T03:24:07;99851.63;;;7.89;77.87
57376;BME280;44805;45.048;5.062;2023-03-15T03:26:32;99849.88;;;7.78;78.54
57376;BME280;44805;45.048;5.062;2023-03-15T03:28:58;99853.66;;;7.86;78.20
57376;BME280;44805;45.048;5.062;2023-03-15T03:31:24;99849.28;;;7.86;76.98
57376;BME280;44805;45.048;5.062;2023-03-15T03:33:50;99853.09;;;7.82;78.19
57376;BME280;44805;45.048;5.062;2023-03-15T03:36:15;99848.13;;;7.79;78.06
57376;BME280;44805;45.048;5.062;2023-03-15T03:38:41;99846.78;;;7.64;78.37
57376;BME280;44805;45.048;5.062;2023-03-15T03:41:07;99850.31;;;7.63;78.79
57376;BME280;44805;45.048;5.062;2023-03-15T03:43:32;99859.19;;;7.50;78.85
57376;BME280;44805;45.048;5.062;2023-03-15T03:45:58;99855.94;;;7.58;78.64
57376;BME280;44805;45.048;5.062;2023-03-15T03:48:23;99856.53;;;7.61;78.92
57376;BME280;44805;45.048;5.062;2023-03-15T03:50:48;99858.97;;;7.53;79.18
57376;BME280;44805;45.048;5.062;2023-03-15T03:53:14;99848.97;;;7.47;79.39
57376;BME280;44805;45.048;5.062;2023-03-15T03:55:39;99863.78;;;7.37;79.40
57376;BME280;44805;45.048;5.062;2023-03-15T03:58:06;99862.13;;;7.36;78.45
57376;BME280;44805;45.048;5.062;2023-03-15T04:00:32;99861.03;;;7.38;78.45
57376;BME280;44805;45.048;5.062;2023-03-15T04:06:00;99858.13;;;7.21;78.42
57376;BME280;44805;45.048;5.062;2023-03-15T04:08:25;99859.31;;;7.16;78.50
57376;BME280;44805;45.048;5.062;2023-03-15T04:10:51;99869.22;;;7.02;78.77
57376;BME280;44805;45.048;5.062;2023-03-15T04:13:17;99865.28;;;7.18;79.06
57376;BME280;44805;45.048;5.062;2023-03-15T04:15:43;99863.16;;;7.01;79.11
57376;BME280;44805;45.048;5.062;2023-03-15T04:21:11;99866.63;;;7.02;78.11
57376;BME280;44805;45.048;5.062;2023-03-15T04:23:36;99861.28;;;7.03;77.52
57376;BME280;44805;45.048;5.062;2023-03-15T04:26:02;99859.22;;;7.07;76.60
57376;BME280;44805;45.048;5.062;2023-03-15T04:28:27;99856.97;;;7.13;76.62
57376;BME280;44805;45.048;5.062;2023-03-15T04:30:54;99856.28;;;7.00;76.04
57376;BME280;44805;45.048;5.062;2023-03-15T04:33:27;99858.28;;;7.08;76.40
57376;BME280;44805;45.048;5.062;2023-03-15T04:35:53;99865.69;;;7.03;75.64
57376;BME280;44805;45.048;5.062;2023-03-15T04:38:19;99862.69;;;7.07;74.95
57376;BME280;44805;45.048;5.062;2023-03-15T04:40:50;99864.00;;;7.02;75.20
57376;BME280;44805;45.048;5.062;2023-03-15T04:43:16;99864.03;;;6.90;75.04
57376;BME280;44805;45.048;5.062;2023-03-15T04:45:41;99867.72;;;6.88;74.27
57376;BME280;44805;45.048;5.062;2023-03-15T04:51:25;99862.34;;;7.01;71.20
57376;BME280;44805;45.048;5.062;2023-03-15T04:53:50;99857.59;;;6.94;72.55
57376;BME280;44805;45.048;5.062;2023-03-15T04:56:16;99851.06;;;6.89;72.85
57376;BME280;44805;45.048;5.062;2023-03-15T04:58:41;99844.13;;;6.99;72.25
57376;BME280;44805;45.048;5.062;2023-03-15T05:01:07;99849.38;;;6.99;72.33
57376;BME280;44805;45.048;5.062;2023-03-15T05:03:32;99847.19;;;7.15;72.96
57376;BME280;44805;45.048;5.062;2023-03-15T05:05:59;99850.69;;;7.05;71.91
57376;BME280;44805;45.048;5.062;2023-03-15T05:08:24;99844.63;;;6.93;72.47
57376;BME280;44805;45.048;5.062;2023-03-15T05:10:50;99849.16;;;7.02;72.24
57376;BME280;44805;45.048;5.062;2023-03-15T05:13:15;99846.44;;;6.92;72.52
57376;BME280;44805;45.048;5.062;2023-03-15T05:15:42;99843.56;;;6.95;72.16
57376;BME280;44805;45.048;5.062;2023-03-15T05:18:23;99854.63;;;6.88;72.61
57376;BME280;44805;45.048;5.062;2023-03-15T05:20:49;99851.41;;;6.84;73.68
57376;BME280;44805;45.048;5.062;2023-03-15T05:23:14;99856.66;;;6.84;73.04
57376;BME280;44805;45.048;5.062;2023-03-15T05:25:40;99849.75;;;6.83;73.25
57376;BME280;44805;45.048;5.062;2023-03-15T05:28:05;99857.25;;;6.77;73.51
57376;BME280;44805;45.048;5.062;2023-03-15T05:30:31;99861.09;;;6.61;74.19
57376;BME280;44805;45.048;5.062;2023-03-15T05:32:56;99862.03;;;6.71;74.45
57376;BME280;44805;45.048;5.062;2023-03-15T05:35:22;99857.78;;;6.59;74.32
57376;BME280;44805;45.048;5.062;2023-03-15T05:37:50;99860.88;;;6.64;74.71
57376;BME280;44805;45.048;5.062;2023-03-15T05:40:16;99853.94;;;6.63;74.94
57376;BME280;44805;45.048;5.062;2023-03-15T05:42:41;99860.41;;;6.59;75.47
57376;BME280;44805;45.048;5.062;2023-03-15T05:45:06;99858.72;;;6.47;76.09
57376;BME280;44805;45.048;5.062;2023-03-15T05:47:32;99867.75;;;6.43;76.01
57376;BME280;44805;45.048;5.062;2023-03-15T05:49:57;99872.75;;;6.57;75.58
57376;BME280;44805;45.048;5.062;2023-03-15T05:52:22;99874.06;;;6.63;76.46
57376;BME280;44805;45.048;5.062;2023-03-15T05:54:48;99877.28;;;6.55;75.73
57376;BME280;44805;45.048;5.062;2023-03-15T05:57:13;99882.97;;;6.38;76.89
57376;BME280;44805;45.048;5.062;2023-03-15T05:59:39;99877.75;;;6.26;77.31
57376;BME280;44805;45.048;5.062;2023-03-15T06:02:04;99889.84;;;6.16;77.74
57376;BME280;44805;45.048;5.062;2023-03-15T06:04:30;99893.31;;;5.93;78.62
57376;BME280;44805;45.048;5.062;2023-03-15T06:06:55;99893.00;;;5.97;78.61
57376;BME280;44805;45.048;5.062;2023-03-15T06:09:20;99902.88;;;6.05;78.28
57376;BME280;44805;45.048;5.062;2023-03-15T06:11:46;99903.94;;;6.02;78.64
57376;BME280;44805;45.048;5.062;2023-03-15T06:14:11;99904.91;;;6.01;78.35
57376;BME280;44805;45.048;5.062;2023-03-15T06:16:36;99908.75;;;5.84;78.86
57376;BME280;44805;45.048;5.062;2023-03-15T06:19:03;99907.75;;;5.74;79.47
57376;BME280;44805;45.048;5.062;2023-03-15T06:21:29;99896.88;;;5.80;79.24
57376;BME280;44805;45.048;5.062;2023-03-15T06:23:54;99902.63;;;5.97;78.86
57376;BME280;44805;45.048;5.062;2023-03-15T06:26:19;99900.50;;;6.02;78.24
57376;BME280;44805;45.048;5.062;2023-03-15T06:28:46;99902.53;;;6.09;78.50
57376;BME280;44805;45.048;5.062;2023-03-15T06:31:11;99912.56;;;6.16;77.69
57376;BME280;44805;45.048;5.062;2023-03-15T06:36:46;99901.50;;;6.35;77.40
57376;BME280;44805;45.048;5.062;2023-03-15T06:39:11;99898.41;;;6.18;77.46
57376;BME280;44805;45.048;5.062;2023-03-15T06:41:37;99904.97;;;6.24;77.28
57376;BME280;44805;45.048;5.062;2023-03-15T06:44:03;99916.25;;;6.36;77.08
57376;BME280;44805;45.048;5.062;2023-03-15T06:46:29;99919.47;;;6.39;76.88
57376;BME280;44805;45.048;5.062;2023-03-15T06:48:54;99924.84;;;6.49;76.37
57376;BME280;44805;45.048;5.062;2023-03-15T06:51:19;99932.66;;;6.38;76.97
57376;BME280;44805;45.048;5.062;2023-03-15T06:53:45;99931.97;;;6.47;76.40
57376;BME280;44805;45.048;5.062;2023-03-15T06:56:10;99931.25;;;6.56;76.42
57376;BME280;44805;45.048;5.062;2023-03-15T06:58:36;99923.75;;;6.63;76.84
57376;BME280;44805;45.048;5.062;2023-03-15T07:01:01;99925.06;;;6.68;76.47
57376;BME280;44805;45.048;5.062;2023-03-15T07:03:26;99939.56;;;6.61;76.14
57376;BME280;44805;45.048;5.062;2023-03-15T07:05:52;99931.63;;;6.85;75.73
57376;BME280;44805;45.048;5.062;2023-03-15T07:08:19;99935.78;;;6.65;75.69
57376;BME280;44805;45.048;5.062;2023-03-15T07:10:44;99945.53;;;6.74;75.81
57376;BME280;44805;45.048;5.062;2023-03-15T07:13:10;99944.09;;;6.70;75.08
57376;BME280;44805;45.048;5.062;2023-03-15T07:15:38;99940.06;;;7.00;74.11
57376;BME280;44805;45.048;5.062;2023-03-15T07:21:06;99954.53;;;7.27;73.16
57376;BME280;44805;45.048;5.062;2023-03-15T07:23:32;99961.41;;;7.39;71.41
57376;BME280;44805;45.048;5.062;2023-03-15T07:25:57;99957.81;;;7.51;71.13
57376;BME280;44805;45.048;5.062;2023-03-15T07:28:24;99959.56;;;7.62;69.12
57376;BME280;44805;45.048;5.062;2023-03-15T07:30:59;99958.69;;;7.73;67.81
57376;BME280;44805;45.048;5.062;2023-03-15T07:36:34;99965.16;;;7.69;67.20
57376;BME280;44805;45.048;5.062;2023-03-15T07:39:00;99960.22;;;7.75;68.34
57376;BME280;44805;45.048;5.062;2023-03-15T07:41:25;99957.28;;;7.69;67.57
57376;BME280;44805;45.048;5.062;2023-03-15T07:43:51;99952.97;;;7.79;67.56
57376;BME280;44805;45.048;5.062;2023-03-15T07:46:16;99947.34;;;8.04;66.80
57376;BME280;44805;45.048;5.062;2023-03-15T07:48:42;99952.41;;;7.96;67.19
57376;BME280;44805;45.048;5.062;2023-03-15T07:51:07;99956.16;;;8.03;65.07
57376;BME280;44805;45.048;5.062;2023-03-15T07:53:32;99950.91;;;8.03;65.44
57376;BME280;44805;45.048;5.062;2023-03-15T07:55:58;99956.63;;;8.09;65.22
57376;BME280;44805;45.048;5.062;2023-03-15T07:58:23;99955.69;;;8.10;64.45
57376;BME280;44805;45.048;5.062;2023-03-15T08:00:49;99952.91;;;8.11;63.58
57376;BME280;44805;45.048;5.062;2023-03-15T08:06:04;99960.41;;;8.16;64.21
57376;BME280;44805;45.048;5.062;2023-03-15T08:08:29;99958.50;;;8.18;63.77
57376;BME280;44805;45.048;5.062;2023-03-15T08:10:54;99963.09;;;8.25;63.39
57376;BME280;44805;45.048;5.062;2023-03-15T08:13:20;99960.47;;;8.25;62.62
57376;BME280;44805;45.048;5.062;2023-03-15T08:15:46;99956.84;;;8.17;62.07
57376;BME280;44805;45.048;5.062;2023-03-15T08:18:30;99960.66;;;8.34;60.44
57376;BME280;44805;45.048;5.062;2023-03-15T08:20:55;99959.53;;;8.47;61.96
57376;BME280;44805;45.048;5.062;2023-03-15T08:23:21;99967.59;;;8.56;60.05
57376;BME280;44805;45.048;5.062;2023-03-15T08:25:46;99968.75;;;8.63;59.90
57376;BME280;44805;45.048;5.062;2023-03-15T08:28:11;99969.03;;;8.69;60.89
57376;BME280;44805;45.048;5.062;2023-03-15T08:30:37;99973.72;;;8.66;60.25
57376;BME280;44805;45.048;5.062;2023-03-15T08:33:02;99974.56;;;8.45;59.60
57376;BME280;44805;45.048;5.062;2023-03-15T08:35:28;99975.97;;;8.71;59.34
57376;BME280;44805;45.048;5.062;2023-03-15T08:37:54;99988.88;;;8.83;59.22
57376;BME280;44805;45.048;5.062;2023-03-15T08:40:20;99978.81;;;8.67;58.84
57376;BME280;44805;45.048;5.062;2023-03-15T08:42:49;99975.03;;;8.81;59.79
57376;BME280;44805;45.048;5.062;2023-03-15T08:45:14;99977.56;;;8.93;59.22
57376;BME280;44805;45.048;5.062;2023-03-15T08:47:40;99978.22;;;8.85;59.31
57376;BME280;44805;45.048;5.062;2023-03-15T08:50:07;99970.56;;;9.03;58.35
57376;BME280;44805;45.048;5.062;2023-03-15T08:52:33;99981.50;;;9.08;57.87
57376;BME280;44805;45.048;5.062;2023-03-15T08:54:58;99970.97;;;9.08;55.84
57376;BME280;44805;45.048;5.062;2023-03-15T08:57:24;99993.38;;;9.02;58.22
57376;BME280;44805;45.048;5.062;2023-03-15T08:59:53;99978.34;;;9.14;58.29
57376;BME280;44805;45.048;5.062;2023-03-15T09:02:19;99981.13;;;9.22;58.80
57376;BME280;44805;45.048;5.062;2023-03-15T09:04:46;99979.72;;;9.18;58.45
57376;BME280;44805;45.048;5.062;2023-03-15T09:07:11;99958.28;;;9.13;57.43
57376;BME280;44805;45.048;5.062;2023-03-15T09:09:37;99969.22;;;9.18;57.23
57376;BME280;44805;45.048;5.062;2023-03-15T09:12:02;99966.81;;;9.46;58.50
57376;BME280;44805;45.048;5.062;2023-03-15T09:14:28;99973.13;;;9.33;58.25
57376;BME280;44805;45.048;5.062;2023-03-15T09:16:53;99976.19;;;9.39;58.02
57376;BME280;44805;45.048;5.062;2023-03-15T09:22:21;99976.78;;;9.71;58.39
57376;BME280;44805;45.048;5.062;2023-03-15T09:24:47;99977.22;;;9.67;57.59
57376;BME280;44805;45.048;5.062;2023-03-15T09:27:12;99980.09;;;9.54;56.61
57376;BME280;44805;45.048;5.062;2023-03-15T09:29:37;99986.19;;;9.45;59.13
57376;BME280;44805;45.048;5.062;2023-03-15T09:32:03;99979.84;;;9.57;58.61
57376;BME280;44805;45.048;5.062;2023-03-15T09:34:28;99973.75;;;9.76;57.87
57376;BME280;44805;45.048;5.062;2023-03-15T09:36:53;99974.47;;;9.88;56.45
57376;BME280;44805;45.048;5.062;2023-03-15T09:39:20;99989.94;;;9.81;57.11
57376;BME280;44805;45.048;5.062;2023-03-15T09:46:55;99972.22;;;10.12;57.17
57376;BME280;44805;45.048;5.062;2023-03-15T09:52:34;99974.31;;;10.18;57.35
57376;BME280;44805;45.048;5.062;2023-03-15T09:55:04;99970.72;;;10.29;56.61
57376;BME280;44805;45.048;5.062;2023-03-15T09:57:42;99976.97;;;10.28;56.39
57376;BME280;44805;45.048;5.062;2023-03-15T10:00:14;99982.09;;;10.10;55.20
57376;BME280;44805;45.048;5.062;2023-03-15T10:02:44;99990.66;;;10.32;55.08
57376;BME280;44805;45.048;5.062;2023-03-15T10:08:15;99967.78;;;10.42;54.73
57376;BME280;44805;45.048;5.062;2023-03-15T10:15:42;99969.28;;;10.64;54.64
57376;BME280;44805;45.048;5.062;2023-03-15T10:20:59;99981.44;;;10.75;53.94
57376;BME280;44805;45.048;5.062;2023-03-15T10:23:44;99974.75;;;10.80;52.51
57376;BME280;44805;45.048;5.062;2023-03-15T10:26:13;99973.06;;;10.89;51.72
57376;BME280;44805;45.048;5.062;2023-03-15T10:28:39;99971.09;;;10.91;51.90
57376;BME280;44805;45.048;5.062;2023-03-15T10:31:12;99967.31;;;11.03;53.18
57376;BME280;44805;45.048;5.062;2023-03-15T10:33:38;99969.56;;;11.26;52.86
57376;BME280;44805;45.048;5.062;2023-03-15T10:36:12;99972.41;;;11.15;52.83
57376;BME280;44805;45.048;5.062;2023-03-15T10:38:38;99961.59;;;11.08;52.69
57376;BME280;44805;45.048;5.062;2023-03-15T10:41:04;99951.88;;;11.08;52.64
57376;BME280;44805;45.048;5.062;2023-03-15T10:43:31;99954.22;;;11.12;52.78
57376;BME280;44805;45.048;5.062;2023-03-15T10:46:05;99958.97;;;11.36;52.50
57376;BME280;44805;45.048;5.062;2023-03-15T10:48:32;99946.31;;;11.57;51.07
57376;BME280;44805;45.048;5.062;2023-03-15T10:51:06;99959.22;;;11.42;50.74
57376;BME280;44805;45.048;5.062;2023-03-15T10:53:32;99950.81;;;11.01;51.15
57376;BME280;44805;45.048;5.062;2023-03-15T10:56:01;99955.16;;;11.20;50.35
57376;BME280;44805;45.048;5.062;2023-03-15T10:58:29;99947.94;;;11.22;48.90
57376;BME280;44805;45.048;5.062;2023-03-15T11:01:03;99934.25;;;11.37;48.46
57376;BME280;44805;45.048;5.062;2023-03-15T11:03:31;99943.66;;;11.39;49.27
57376;BME280;44805;45.048;5.062;2023-03-15T11:05:57;99931.41;;;11.66;49.67
57376;BME280;44805;45.048;5.062;2023-03-15T11:08:44;99931.25;;;11.67;47.62
57376;BME280;44805;45.048;5.062;2023-03-15T11:11:09;99928.91;;;11.46;47.83
57376;BME280;44805;45.048;5.062;2023-03-15T11:13:35;99937.13;;;11.61;47.30
57376;BME280;44805;45.048;5.062;2023-03-15T11:16:03;99943.16;;;11.36;47.93
57376;BME280;44805;45.048;5.062;2023-03-15T11:18:31;99932.25;;;11.66;48.22
57376;BME280;44805;45.048;5.062;2023-03-15T11:20:57;99934.19;;;11.46;46.93
57376;BME280;44805;45.048;5.062;2023-03-15T11:23:27;99934.38;;;11.63;46.88
57376;BME280;44805;45.048;5.062;2023-03-15T11:25:53;99937.50;;;11.84;46.60
57376;BME280;44805;45.048;5.062;2023-03-15T11:28:20;99935.13;;;11.73;47.06
57376;BME280;44805;45.048;5.062;2023-03-15T11:30:47;99942.19;;;11.90;47.95
57376;BME280;44805;45.048;5.062;2023-03-15T11:36:06;99944.00;;;12.08;47.54
57376;BME280;44805;45.048;5.062;2023-03-15T11:38:36;99945.50;;;12.10;45.01
57376;BME280;44805;45.048;5.062;2023-03-15T11:41:19;99935.16;;;12.17;45.68
57376;BME280;44805;45.048;5.062;2023-03-15T11:43:47;99935.41;;;12.06;45.01
57376;BME280;44805;45.048;5.062;2023-03-15T11:46:23;99936.34;;;11.97;45.99
57376;BME280;44805;45.048;5.062;2023-03-15T11:48:50;99930.03;;;12.15;45.54
57376;BME280;44805;45.048;5.062;2023-03-15T11:51:18;99925.44;;;12.44;44.91
57376;BME280;44805;45.048;5.062;2023-03-15T11:53:45;99931.38;;;12.46;44.04
57376;BME280;44805;45.048;5.062;2023-03-15T11:56:24;99926.28;;;12.44;44.53
57376;BME280;44805;45.048;5.062;2023-03-15T12:01:35;99911.72;;;12.14;43.50
57376;BME280;44805;45.048;5.062;2023-03-15T12:07:03;99903.84;;;12.48;43.74
57376;BME280;44805;45.048;5.062;2023-03-15T12:12:37;99910.97;;;12.56;42.54
57376;BME280;44805;45.048;5.062;2023-03-15T12:14:42;99911.19;;;12.63;42.14
57376;BME280;44805;45.048;5.062;2023-03-15T12:19:57;99906.03;;;12.53;38.52
57376;BME280;44805;45.048;5.062;2023-03-15T12:22:23;99907.06;;;12.60;39.87
57376;BME280;44805;45.048;5.062;2023-03-15T12:24:55;99902.50;;;12.78;41.29
57376;BME280;44805;45.048;5.062;2023-03-15T12:27:23;99901.16;;;12.74;40.09
57376;BME280;44805;45.048;5.062;2023-03-15T12:29:57;99901.00;;;12.76;39.63
57376;BME280;44805;45.048;5.062;2023-03-15T12:32:23;99901.44;;;12.63;38.66
57376;BME280;44805;45.048;5.062;2023-03-15T12:34:49;99894.47;;;12.54;37.49
57376;BME280;44805;45.048;5.062;2023-03-15T12:37:26;99898.09;;;12.53;37.72
57376;BME280;44805;45.048;5.062;2023-03-15T12:40:28;99886.69;;;12.44;39.48
57376;BME280;44805;45.048;5.062;2023-03-15T12:52:52;99860.78;;;12.56;35.67
57376;BME280;44805;45.048;5.062;2023-03-15T12:55:23;99866.34;;;12.36;37.02
57376;BME280;44805;45.048;5.062;2023-03-15T12:57:51;99869.53;;;12.56;37.11
57376;BME280;44805;45.048;5.062;2023-03-15T13:00:25;99855.06;;;12.60;36.59
57376;BME280;44805;45.048;5.062;2023-03-15T13:02:52;99863.75;;;12.53;36.16
57376;BME280;44805;45.048;5.062;2023-03-15T13:08:23;99871.09;;;12.67;35.46
57376;BME280;44805;45.048;5.062;2023-03-15T13:18:30;99858.88;;;12.74;36.47
57376;BME280;44805;45.048;5.062;2023-03-15T13:24:02;99839.19;;;13.03;37.43
57376;BME280;44805;45.048;5.062;2023-03-15T13:26:34;99852.88;;;12.98;35.91
57376;BME280;44805;45.048;5.062;2023-03-15T13:31:30;99833.00;;;12.78;35.88
57376;BME280;44805;45.048;5.062;2023-03-15T13:33:56;99850.50;;;12.87;35.17
57376;BME280;44805;45.048;5.062;2023-03-15T13:39:31;99844.72;;;12.75;36.33
57376;BME280;44805;45.048;5.062;2023-03-15T13:44:23;99842.94;;;12.92;35.61
57376;BME280;44805;45.048;5.062;2023-03-15T13:46:50;99837.34;;;12.95;37.13
57376;BME280;44805;45.048;5.062;2023-03-15T13:49:16;99841.63;;;13.04;36.75
57376;BME280;44805;45.048;5.062;2023-03-15T13:52:03;99846.44;;;13.09;36.22
57376;BME280;44805;45.048;5.062;2023-03-15T13:54:36;99845.38;;;13.36;36.38
57376;BME280;44805;45.048;5.062;2023-03-15T13:57:04;99842.88;;;13.27;35.07
57376;BME280;44805;45.048;5.062;2023-03-15T13:59:36;99840.19;;;13.10;34.53
57376;BME280;44805;45.048;5.062;2023-03-15T14:02:03;99841.28;;;12.91;34.96
57376;BME280;44805;45.048;5.062;2023-03-15T14:07:39;99839.63;;;12.90;34.00
57376;BME280;44805;45.048;5.062;2023-03-15T14:12:34;99842.13;;;13.00;33.68
57376;BME280;44805;45.048;5.062;2023-03-15T14:14:59;99848.22;;;12.92;33.86
57376;BME280;44805;45.048;5.062;2023-03-15T14:17:26;99838.66;;;12.99;34.26
57376;BME280;44805;45.048;5.062;2023-03-15T14:19:52;99839.44;;;12.84;35.00
57376;BME280;44805;45.048;5.062;2023-03-15T14:22:18;99846.78;;;13.06;34.29
57376;BME280;44805;45.048;5.062;2023-03-15T14:24:45;99843.09;;;12.91;33.50
57376;BME280;44805;45.048;5.062;2023-03-15T14:27:19;99863.78;;;13.03;33.68
57376;BME280;44805;45.048;5.062;2023-03-15T14:29:46;99843.94;;;13.08;34.27
57376;BME280;44805;45.048;5.062;2023-03-15T14:32:26;99853.19;;;12.95;32.55
57376;BME280;44805;45.048;5.062;2023-03-15T14:37:34;99842.47;;;13.05;32.71
57376;BME280;44805;45.048;5.062;2023-03-15T14:42:45;99841.88;;;13.28;33.00
57376;BME280;44805;45.048;5.062;2023-03-15T14:45:11;99846.44;;;13.17;32.17
57376;BME280;44805;45.048;5.062;2023-03-15T14:47:38;99841.81;;;13.11;31.91
57376;BME280;44805;45.048;5.062;2023-03-15T14:50:19;99844.31;;;13.13;30.82
57376;BME280;44805;45.048;5.062;2023-03-15T14:52:45;99848.22;;;12.92;31.13
57376;BME280;44805;45.048;5.062;2023-03-15T14:55:21;99843.94;;;13.08;32.05
57376;BME280;44805;45.048;5.062;2023-03-15T14:57:47;99838.53;;;13.17;32.11
57376;BME280;44805;45.048;5.062;2023-03-15T15:00:14;99842.50;;;13.21;31.91
57376;BME280;44805;45.048;5.062;2023-03-15T15:02:47;99843.94;;;13.08;32.37
57376;BME280;44805;45.048;5.062;2023-03-15T15:05:27;99840.50;;;13.07;32.38
57376;BME280;44805;45.048;5.062;2023-03-15T15:07:58;99833.22;;;13.09;32.91
57376;BME280;44805;45.048;5.062;2023-03-15T15:10:26;99842.66;;;13.12;32.53
57376;BME280;44805;45.048;5.062;2023-03-15T15:12:52;99836.53;;;13.11;32.66
57376;BME280;44805;45.048;5.062;2023-03-15T15:15:18;99840.31;;;13.00;30.97
57376;BME280;44805;45.048;5.062;2023-03-15T15:17:45;99840.81;;;13.04;31.65
57376;BME280;44805;45.048;5.062;2023-03-15T15:20:26;99846.78;;;13.06;31.48